Terminal Aerodrome Forecast
Issued by NWS Glasgow, MT

Current Version | Previous Version | Text Only | Print | Product List | Glossary On
Versions: 1 2 3 4 5 6 7 8 9 10 11 12 13 14 15 16 17 18 19 20
000
FTUS45 KGGW 241720
TAFGGW
TAF
KGGW 241720Z 2418/2518 30006KT P6SM VCSH BKN020
      TEMPO 2418/2422 3SM -SN OVC015
     FM242200 31010KT P6SM VCSH BKN025
     FM250600 30004KT P6SM BKN020=

USA.gov is the U.S. government's official web portal to all federal, state and local government web resources and services.